sensor_id;sensor_type;location;lat;lon;timestamp;pressure;altitude;pressure_sealevel;temperature;humidity
21877;BME280;11103;43.788;23.710;2022-12-07T00:01:39;121817.81;;;6.17;100.00
21877;BME280;11103;43.788;23.710;2022-12-07T00:04:07;121793.19;;;6.25;100.00
21877;BME280;11103;43.788;23.710;2022-12-07T00:06:33;121123.16;;;6.29;100.00
21877;BME280;11103;43.788;23.710;2022-12-07T00:08:59;120604.25;;;6.23;100.00
21877;BME280;11103;43.788;23.710;2022-12-07T00:11:25;120377.00;;;6.25;100.00
21877;BME280;11103;43.788;23.710;2022-12-07T00:13:52;119957.16;;;6.26;100.00
21877;BME280;11103;43.788;23.710;2022-12-07T00:16:20;119674.00;;;6.30;100.00
21877;BME280;11103;43.788;23.710;2022-12-07T00:18:46;119312.19;;;6.29;100.00
21877;BME280;11103;43.788;23.710;2022-12-07T00:21:14;119925.56;;;6.32;100.00
21877;BME280;11103;43.788;23.710;2022-12-07T00:23:40;118684.31;;;6.11;100.00
21877;BME280;11103;43.788;23.710;2022-12-07T00:26:14;118349.94;;;6.19;100.00
21877;BME280;11103;43.788;23.710;2022-12-07T00:28:39;117690.63;;;6.12;100.00
21877;BME280;11103;43.788;23.710;2022-12-07T00:31:08;116965.56;;;6.23;100.00
21877;BME280;11103;43.788;23.710;2022-12-07T00:33:34;116428.88;;;6.21;100.00
21877;BME280;11103;43.788;23.710;2022-12-07T00:36:00;117291.97;;;6.22;100.00
21877;BME280;11103;43.788;23.710;2022-12-07T00:38:31;118769.88;;;6.27;100.00
21877;BME280;11103;43.788;23.710;2022-12-07T00:41:02;120734.75;;;6.26;100.00
21877;BME280;11103;43.788;23.710;2022-12-07T00:43:28;121051.22;;;6.30;100.00
21877;BME280;11103;43.788;23.710;2022-12-07T00:45:54;121614.13;;;6.31;100.00
21877;BME280;11103;43.788;23.710;2022-12-07T00:48:21;121732.00;;;6.23;100.00
21877;BME280;11103;43.788;23.710;2022-12-07T00:50:46;122265.63;;;6.28;100.00
21877;BME280;11103;43.788;23.710;2022-12-07T00:53:12;122524.28;;;6.31;100.00
21877;BME280;11103;43.788;23.710;2022-12-07T00:55:38;122136.66;;;6.27;100.00
21877;BME280;11103;43.788;23.710;2022-12-07T00:58:04;122177.91;;;6.22;100.00
21877;BME280;11103;43.788;23.710;2022-12-07T01:00:30;122847.03;;;6.31;100.00
21877;BME280;11103;43.788;23.710;2022-12-07T01:02:56;122918.53;;;6.30;100.00
21877;BME280;11103;43.788;23.710;2022-12-07T01:05:21;123364.16;;;6.30;100.00
21877;BME280;11103;43.788;23.710;2022-12-07T01:07:47;122987.41;;;6.30;100.00
21877;BME280;11103;43.788;23.710;2022-12-07T01:10:13;122380.09;;;6.27;100.00
21877;BME280;11103;43.788;23.710;2022-12-07T01:12:40;122777.34;;;6.25;100.00
21877;BME280;11103;43.788;23.710;2022-12-07T01:15:06;122513.88;;;6.18;100.00
21877;BME280;11103;43.788;23.710;2022-12-07T01:17:32;122921.47;;;6.27;100.00
21877;BME280;11103;43.788;23.710;2022-12-07T01:19:57;121703.72;;;6.12;100.00
21877;BME280;11103;43.788;23.710;2022-12-07T01:22:23;121144.25;;;6.23;100.00
21877;BME280;11103;43.788;23.710;2022-12-07T01:24:48;119440.66;;;6.19;100.00
21877;BME280;11103;43.788;23.710;2022-12-07T01:27:14;117197.19;;;6.25;100.00
21877;BME280;11103;43.788;23.710;2022-12-07T01:29:40;116444.16;;;5.89;100.00
21877;BME280;11103;43.788;23.710;2022-12-07T01:32:05;118331.47;;;6.13;100.00
21877;BME280;11103;43.788;23.710;2022-12-07T01:34:31;118577.38;;;6.05;100.00
21877;BME280;11103;43.788;23.710;2022-12-07T01:36:56;113150.47;;;5.98;100.00
21877;BME280;11103;43.788;23.710;2022-12-07T01:39:23;111416.22;;;5.84;100.00
21877;BME280;11103;43.788;23.710;2022-12-07T01:41:48;107695.81;;;5.95;100.00
21877;BME280;11103;43.788;23.710;2022-12-07T01:44:20;108237.66;;;5.98;100.00
21877;BME280;11103;43.788;23.710;2022-12-07T01:46:54;107811.75;;;6.01;100.00
21877;BME280;11103;43.788;23.710;2022-12-07T01:51:57;109108.47;;;6.15;100.00
21877;BME280;11103;43.788;23.710;2022-12-07T01:54:23;112001.94;;;6.16;100.00
21877;BME280;11103;43.788;23.710;2022-12-07T01:56:51;112968.09;;;6.22;100.00
21877;BME280;11103;43.788;23.710;2022-12-07T01:59:21;114622.97;;;6.17;100.00
21877;BME280;11103;43.788;23.710;2022-12-07T02:01:50;115798.34;;;6.25;100.00
21877;BME280;11103;43.788;23.710;2022-12-07T02:04:15;117658.84;;;6.18;100.00
21877;BME280;11103;43.788;23.710;2022-12-07T02:06:41;119737.78;;;6.07;100.00
21877;BME280;11103;43.788;23.710;2022-12-07T02:09:08;119709.78;;;6.16;100.00
21877;BME280;11103;43.788;23.710;2022-12-07T02:11:33;120114.53;;;6.27;100.00
21877;BME280;11103;43.788;23.710;2022-12-07T02:13:59;121618.19;;;6.28;100.00
21877;BME280;11103;43.788;23.710;2022-12-07T02:30:08;121534.19;;;6.22;100.00
21877;BME280;11103;43.788;23.710;2022-12-07T02:33:04;122431.53;;;6.30;100.00
21877;BME280;11103;43.788;23.710;2022-12-07T02:35:47;122456.19;;;6.25;100.00
21877;BME280;11103;43.788;23.710;2022-12-07T02:38:37;123944.72;;;6.33;100.00
21877;BME280;11103;43.788;23.710;2022-12-07T02:41:13;125747.75;;;6.32;100.00
21877;BME280;11103;43.788;23.710;2022-12-07T02:44:05;126386.47;;;6.30;100.00
21877;BME280;11103;43.788;23.710;2022-12-07T02:46:37;125111.91;;;6.31;100.00
21877;BME280;11103;43.788;23.710;2022-12-07T02:49:04;123937.81;;;6.31;100.00
21877;BME280;11103;43.788;23.710;2022-12-07T02:51:31;124249.28;;;6.30;100.00
21877;BME280;11103;43.788;23.710;2022-12-07T02:53:57;124569.59;;;6.09;100.00
21877;BME280;11103;43.788;23.710;2022-12-07T03:02:25;126576.00;;;6.23;100.00
21877;BME280;11103;43.788;23.710;2022-12-07T03:05:04;126332.44;;;6.20;100.00
21877;BME280;11103;43.788;23.710;2022-12-07T03:07:48;122689.44;;;6.16;100.00
21877;BME280;11103;43.788;23.710;2022-12-07T03:18:24;125987.69;;;6.26;100.00
21877;BME280;11103;43.788;23.710;2022-12-07T03:20:53;123943.13;;;6.16;100.00
21877;BME280;11103;43.788;23.710;2022-12-07T03:23:22;122673.25;;;6.26;100.00
21877;BME280;11103;43.788;23.710;2022-12-07T03:25:55;121616.53;;;6.23;100.00
21877;BME280;11103;43.788;23.710;2022-12-07T03:28:24;122681.97;;;6.24;100.00
21877;BME280;11103;43.788;23.710;2022-12-07T03:31:12;122965.59;;;6.18;100.00
21877;BME280;11103;43.788;23.710;2022-12-07T03:33:47;118435.75;;;6.21;100.00
21877;BME280;11103;43.788;23.710;2022-12-07T03:36:19;116035.59;;;6.26;100.00
21877;BME280;11103;43.788;23.710;2022-12-07T03:38:57;117200.34;;;6.12;100.00
21877;BME280;11103;43.788;23.710;2022-12-07T03:41:29;117832.41;;;6.24;100.00
21877;BME280;11103;43.788;23.710;2022-12-07T03:43:55;117752.47;;;6.31;100.00
21877;BME280;11103;43.788;23.710;2022-12-07T03:46:56;118735.19;;;6.27;100.00
21877;BME280;11103;43.788;23.710;2022-12-07T03:49:25;121003.13;;;6.36;100.00
21877;BME280;11103;43.788;23.710;2022-12-07T03:51:57;125302.22;;;6.25;100.00
21877;BME280;11103;43.788;23.710;2022-12-07T03:54:34;123421.91;;;5.97;100.00
21877;BME280;11103;43.788;23.710;2022-12-07T03:57:02;116720.03;;;6.11;100.00
21877;BME280;11103;43.788;23.710;2022-12-07T03:59:29;114423.81;;;6.03;100.00
21877;BME280;11103;43.788;23.710;2022-12-07T04:01:59;114256.47;;;6.19;100.00
21877;BME280;11103;43.788;23.710;2022-12-07T04:04:27;114057.53;;;6.19;100.00
21877;BME280;11103;43.788;23.710;2022-12-07T04:06:53;115982.22;;;6.20;100.00
21877;BME280;11103;43.788;23.710;2022-12-07T04:09:19;115178.97;;;6.12;100.00
21877;BME280;11103;43.788;23.710;2022-12-07T04:11:44;116471.97;;;6.27;100.00
21877;BME280;11103;43.788;23.710;2022-12-07T04:14:10;117614.66;;;6.23;100.00
21877;BME280;11103;43.788;23.710;2022-12-07T04:16:50;118281.41;;;6.26;100.00
21877;BME280;11103;43.788;23.710;2022-12-07T04:19:18;119444.75;;;6.23;100.00
21877;BME280;11103;43.788;23.710;2022-12-07T04:21:45;120659.59;;;6.16;100.00
21877;BME280;11103;43.788;23.710;2022-12-07T04:24:12;119948.88;;;6.12;100.00
21877;BME280;11103;43.788;23.710;2022-12-07T04:26:38;117141.00;;;6.10;100.00
21877;BME280;11103;43.788;23.710;2022-12-07T04:29:04;115168.84;;;6.16;100.00
21877;BME280;11103;43.788;23.710;2022-12-07T04:31:30;116689.19;;;6.27;100.00
21877;BME280;11103;43.788;23.710;2022-12-07T04:33:56;117336.72;;;6.27;100.00
21877;BME280;11103;43.788;23.710;2022-12-07T04:36:21;118282.16;;;6.18;100.00
21877;BME280;11103;43.788;23.710;2022-12-07T04:38:47;119919.91;;;6.18;100.00
21877;BME280;11103;43.788;23.710;2022-12-07T04:41:12;121589.16;;;6.26;100.00
21877;BME280;11103;43.788;23.710;2022-12-07T04:43:38;119895.06;;;6.16;100.00
21877;BME280;11103;43.788;23.710;2022-12-07T04:46:03;121236.38;;;6.20;100.00
21877;BME280;11103;43.788;23.710;2022-12-07T04:48:29;119468.25;;;6.03;100.00
21877;BME280;11103;43.788;23.710;2022-12-07T04:50:54;115894.88;;;5.96;100.00
21877;BME280;11103;43.788;23.710;2022-12-07T04:53:20;112096.50;;;6.04;100.00
21877;BME280;11103;43.788;23.710;2022-12-07T04:55:46;110258.41;;;6.01;100.00
21877;BME280;11103;43.788;23.710;2022-12-07T04:58:12;112702.03;;;6.18;100.00
21877;BME280;11103;43.788;23.710;2022-12-07T05:00:38;119056.34;;;6.07;100.00
21877;BME280;11103;43.788;23.710;2022-12-07T05:03:04;118959.16;;;5.70;100.00
21877;BME280;11103;43.788;23.710;2022-12-07T05:05:29;116543.00;;;5.77;100.00
21877;BME280;11103;43.788;23.710;2022-12-07T05:07:55;118376.31;;;5.99;100.00
21877;BME280;11103;43.788;23.710;2022-12-07T05:10:21;117766.28;;;5.94;100.00
21877;BME280;11103;43.788;23.710;2022-12-07T05:12:46;116315.22;;;6.03;100.00
21877;BME280;11103;43.788;23.710;2022-12-07T05:15:13;113065.94;;;6.02;100.00
21877;BME280;11103;43.788;23.710;2022-12-07T05:17:38;112796.88;;;6.11;100.00
21877;BME280;11103;43.788;23.710;2022-12-07T05:20:05;112286.59;;;6.15;100.00
21877;BME280;11103;43.788;23.710;2022-12-07T05:22:30;112648.72;;;6.10;100.00
21877;BME280;11103;43.788;23.710;2022-12-07T05:24:56;114436.41;;;6.12;100.00
21877;BME280;11103;43.788;23.710;2022-12-07T05:27:21;117049.06;;;6.08;100.00
21877;BME280;11103;43.788;23.710;2022-12-07T05:29:47;117943.16;;;6.23;100.00
21877;BME280;11103;43.788;23.710;2022-12-07T05:32:12;118621.16;;;6.13;100.00
21877;BME280;11103;43.788;23.710;2022-12-07T05:34:38;119131.69;;;6.21;100.00
21877;BME280;11103;43.788;23.710;2022-12-07T05:37:03;119131.69;;;6.21;100.00
21877;BME280;11103;43.788;23.710;2022-12-07T05:39:28;118795.66;;;6.06;100.00
21877;BME280;11103;43.788;23.710;2022-12-07T05:41:54;119369.91;;;6.06;100.00
21877;BME280;11103;43.788;23.710;2022-12-07T05:44:42;118769.47;;;6.21;100.00
21877;BME280;11103;43.788;23.710;2022-12-07T05:47:08;119305.38;;;5.90;100.00
21877;BME280;11103;43.788;23.710;2022-12-07T05:49:34;120974.34;;;6.16;100.00
21877;BME280;11103;43.788;23.710;2022-12-07T05:51:59;121048.31;;;6.13;100.00
21877;BME280;11103;43.788;23.710;2022-12-07T05:54:25;121330.72;;;6.25;100.00
21877;BME280;11103;43.788;23.710;2022-12-07T05:56:51;122856.25;;;6.17;100.00
21877;BME280;11103;43.788;23.710;2022-12-07T05:59:16;123347.03;;;6.11;100.00
21877;BME280;11103;43.788;23.710;2022-12-07T06:02:12;119128.31;;;6.05;100.00
21877;BME280;11103;43.788;23.710;2022-12-07T06:04:41;113762.84;;;6.00;100.00
21877;BME280;11103;43.788;23.710;2022-12-07T06:07:08;115119.16;;;5.97;100.00
21877;BME280;11103;43.788;23.710;2022-12-07T06:09:34;111072.13;;;5.83;100.00
21877;BME280;11103;43.788;23.710;2022-12-07T06:12:00;106615.25;;;5.84;100.00
21877;BME280;11103;43.788;23.710;2022-12-07T06:14:44;104622.72;;;5.87;100.00
21877;BME280;11103;43.788;23.710;2022-12-07T06:17:10;101694.63;;;5.60;100.00
21877;BME280;11103;43.788;23.710;2022-12-07T06:19:37;100343.91;;;5.67;100.00
21877;BME280;11103;43.788;23.710;2022-12-07T06:22:03;99370.44;;;5.84;100.00
21877;BME280;11103;43.788;23.710;2022-12-07T06:24:30;97611.31;;;5.82;100.00
21877;BME280;11103;43.788;23.710;2022-12-07T06:26:55;96860.19;;;5.80;100.00
21877;BME280;11103;43.788;23.710;2022-12-07T06:29:21;100472.31;;;5.98;100.00
21877;BME280;11103;43.788;23.710;2022-12-07T06:31:47;104344.59;;;5.97;100.00
21877;BME280;11103;43.788;23.710;2022-12-07T06:34:15;105974.84;;;5.86;100.00
21877;BME280;11103;43.788;23.710;2022-12-07T06:36:41;103622.63;;;6.09;100.00
21877;BME280;11103;43.788;23.710;2022-12-07T06:39:07;106168.06;;;6.16;100.00
21877;BME280;11103;43.788;23.710;2022-12-07T06:41:39;109976.31;;;6.25;100.00
21877;BME280;11103;43.788;23.710;2022-12-07T06:44:06;114603.00;;;6.27;100.00
21877;BME280;11103;43.788;23.710;2022-12-07T06:46:32;117997.53;;;6.37;100.00
21877;BME280;11103;43.788;23.710;2022-12-07T06:48:57;124159.81;;;6.33;100.00
21877;BME280;11103;43.788;23.710;2022-12-07T06:51:23;128557.84;;;6.43;100.00
21877;BME280;11103;43.788;23.710;2022-12-07T06:53:48;128464.88;;;6.32;100.00
21877;BME280;11103;43.788;23.710;2022-12-07T06:56:14;129427.38;;;6.47;100.00
21877;BME280;11103;43.788;23.710;2022-12-07T06:58:40;132629.19;;;6.49;100.00
21877;BME280;11103;43.788;23.710;2022-12-07T07:01:13;133729.66;;;6.54;100.00
21877;BME280;11103;43.788;23.710;2022-12-07T07:03:40;133620.16;;;6.55;100.00
21877;BME280;11103;43.788;23.710;2022-12-07T07:06:06;133570.19;;;6.57;100.00
21877;BME280;11103;43.788;23.710;2022-12-07T07:08:33;137331.13;;;6.51;100.00
21877;BME280;11103;43.788;23.710;2022-12-07T07:10:58;136705.28;;;6.52;100.00
21877;BME280;11103;43.788;23.710;2022-12-07T07:13:24;138013.56;;;6.66;100.00
21877;BME280;11103;43.788;23.710;2022-12-07T07:15:49;139715.06;;;6.60;100.00
21877;BME280;11103;43.788;23.710;2022-12-07T07:18:15;141467.59;;;6.63;100.00
21877;BME280;11103;43.788;23.710;2022-12-07T07:20:41;142548.91;;;6.64;100.00
21877;BME280;11103;43.788;23.710;2022-12-07T07:23:06;144531.34;;;6.67;100.00
21877;BME280;11103;43.788;23.710;2022-12-07T07:25:32;143931.50;;;6.57;100.00
21877;BME280;11103;43.788;23.710;2022-12-07T07:27:58;140660.50;;;6.60;100.00
21877;BME280;11103;43.788;23.710;2022-12-07T07:30:24;143158.63;;;6.56;100.00
21877;BME280;11103;43.788;23.710;2022-12-07T07:32:49;144309.19;;;6.60;100.00
21877;BME280;11103;43.788;23.710;2022-12-07T07:35:16;140938.03;;;6.44;100.00
21877;BME280;11103;43.788;23.710;2022-12-07T07:37:41;136985.31;;;6.45;100.00
21877;BME280;11103;43.788;23.710;2022-12-07T07:40:08;133216.25;;;6.45;100.00
21877;BME280;11103;43.788;23.710;2022-12-07T07:42:33;130369.66;;;6.55;100.00
21877;BME280;11103;43.788;23.710;2022-12-07T07:44:59;134217.22;;;6.49;100.00
21877;BME280;11103;43.788;23.710;2022-12-07T07:47:24;133415.22;;;6.71;100.00
21877;BME280;11103;43.788;23.710;2022-12-07T07:49:50;142261.91;;;6.66;100.00
21877;BME280;11103;43.788;23.710;2022-12-07T07:52:15;142112.66;;;6.54;100.00
21877;BME280;11103;43.788;23.710;2022-12-07T07:54:41;139765.16;;;6.70;100.00
21877;BME280;11103;43.788;23.710;2022-12-07T07:57:06;138603.50;;;6.71;100.00
21877;BME280;11103;43.788;23.710;2022-12-07T07:59:31;139911.72;;;6.87;100.00
21877;BME280;11103;43.788;23.710;2022-12-07T08:01:57;141585.41;;;6.99;100.00
21877;BME280;11103;43.788;23.710;2022-12-07T08:04:23;142294.78;;;7.06;100.00
21877;BME280;11103;43.788;23.710;2022-12-07T08:06:48;145131.63;;;6.99;100.00
21877;BME280;11103;43.788;23.710;2022-12-07T08:09:13;148139.34;;;7.00;100.00
21877;BME280;11103;43.788;23.710;2022-12-07T08:11:39;147078.78;;;7.03;100.00
21877;BME280;11103;43.788;23.710;2022-12-07T08:14:04;147446.09;;;6.98;100.00
21877;BME280;11103;43.788;23.710;2022-12-07T08:16:30;148124.03;;;6.94;100.00
21877;BME280;11103;43.788;23.710;2022-12-07T08:18:55;146808.81;;;6.83;100.00
21877;BME280;11103;43.788;23.710;2022-12-07T08:21:21;145878.03;;;6.87;100.00
21877;BME280;11103;43.788;23.710;2022-12-07T08:23:47;143879.91;;;6.73;100.00
21877;BME280;11103;43.788;23.710;2022-12-07T08:26:15;144215.44;;;6.59;100.00
21877;BME280;11103;43.788;23.710;2022-12-07T08:28:41;142828.41;;;6.60;100.00
21877;BME280;11103;43.788;23.710;2022-12-07T08:31:12;143862.47;;;6.56;100.00
21877;BME280;11103;43.788;23.710;2022-12-07T08:33:38;143290.03;;;6.68;100.00
21877;BME280;11103;43.788;23.710;2022-12-07T08:36:09;142313.28;;;6.71;100.00
21877;BME280;11103;43.788;23.710;2022-12-07T08:38:35;144080.94;;;6.60;100.00
21877;BME280;11103;43.788;23.710;2022-12-07T08:41:03;144207.09;;;6.52;100.00
21877;BME280;11103;43.788;23.710;2022-12-07T08:43:29;140139.59;;;6.67;100.00
21877;BME280;11103;43.788;23.710;2022-12-07T08:46:11;136297.63;;;6.75;100.00
21877;BME280;11103;43.788;23.710;2022-12-07T08:48:46;136457.09;;;6.56;100.00
21877;BME280;11103;43.788;23.710;2022-12-07T08:51:14;131840.25;;;6.78;100.00
21877;BME280;11103;43.788;23.710;2022-12-07T08:53:39;136244.38;;;6.74;100.00
21877;BME280;11103;43.788;23.710;2022-12-07T08:56:05;137926.97;;;6.69;100.00
21877;BME280;11103;43.788;23.710;2022-12-07T08:58:33;136776.78;;;6.68;100.00
21877;BME280;11103;43.788;23.710;2022-12-07T09:00:58;136744.53;;;6.51;100.00
21877;BME280;11103;43.788;23.710;2022-12-07T09:03:24;133053.69;;;6.46;100.00
21877;BME280;11103;43.788;23.710;2022-12-07T09:05:49;129231.97;;;6.70;100.00
21877;BME280;11103;43.788;23.710;2022-12-07T09:08:15;132759.63;;;6.64;100.00
21877;BME280;11103;43.788;23.710;2022-12-07T09:10:41;128500.56;;;6.61;100.00
21877;BME280;11103;43.788;23.710;2022-12-07T09:13:06;130278.78;;;6.74;100.00
21877;BME280;11103;43.788;23.710;2022-12-07T09:15:31;132754.31;;;6.69;100.00
21877;BME280;11103;43.788;23.710;2022-12-07T09:17:57;130838.97;;;6.65;100.00
21877;BME280;11103;43.788;23.710;2022-12-07T09:20:22;125415.25;;;6.97;100.00
21877;BME280;11103;43.788;23.710;2022-12-07T09:22:48;138321.06;;;7.00;100.00
21877;BME280;11103;43.788;23.710;2022-12-07T09:25:13;139006.41;;;6.99;100.00
21877;BME280;11103;43.788;23.710;2022-12-07T09:27:39;139867.88;;;6.98;100.00
21877;BME280;11103;43.788;23.710;2022-12-07T09:30:07;141581.53;;;6.91;100.00
21877;BME280;11103;43.788;23.710;2022-12-07T09:32:34;138495.22;;;7.08;100.00
21877;BME280;11103;43.788;23.710;2022-12-07T09:35:00;138026.16;;;7.14;100.00
21877;BME280;11103;43.788;23.710;2022-12-07T09:37:25;146837.34;;;7.17;100.00
21877;BME280;11103;43.788;23.710;2022-12-07T09:39:51;147258.16;;;7.14;100.00
21877;BME280;11103;43.788;23.710;2022-12-07T09:42:34;146660.75;;;7.21;100.00
21877;BME280;11103;43.788;23.710;2022-12-07T09:45:01;148130.41;;;6.97;100.00
21877;BME280;11103;43.788;23.710;2022-12-07T09:47:27;147543.19;;;7.09;100.00
21877;BME280;11103;43.788;23.710;2022-12-07T09:50:00;148200.59;;;7.25;100.00
21877;BME280;11103;43.788;23.710;2022-12-07T09:52:28;148236.34;;;7.39;100.00
21877;BME280;11103;43.788;23.710;2022-12-07T09:54:54;148231.19;;;7.37;100.00
21877;BME280;11103;43.788;23.710;2022-12-07T09:57:27;148277.16;;;7.55;100.00
21877;BME280;11103;43.788;23.710;2022-12-07T09:59:56;148292.50;;;7.61;100.00
21877;BME280;11103;43.788;23.710;2022-12-07T10:05:12;148245.22;;;7.42;100.00
21877;BME280;11103;43.788;23.710;2022-12-07T10:07:38;148296.31;;;7.62;100.00
21877;BME280;11103;43.788;23.710;2022-12-07T10:10:12;148289.94;;;7.60;100.00
21877;BME280;11103;43.788;23.710;2022-12-07T10:12:53;148254.19;;;7.46;100.00
21877;BME280;11103;43.788;23.710;2022-12-07T10:15:19;148228.66;;;7.36;100.00
21877;BME280;11103;43.788;23.710;2022-12-07T10:17:50;148208.25;;;7.28;100.00
21877;BME280;11103;43.788;23.710;2022-12-07T10:25:26;148210.78;;;7.29;100.00
21877;BME280;11103;43.788;23.710;2022-12-07T10:28:20;148215.91;;;7.31;100.00
21877;BME280;11103;43.788;23.710;2022-12-07T10:33:34;148232.47;;;7.37;100.00
21877;BME280;11103;43.788;23.710;2022-12-07T10:36:55;148277.16;;;7.55;100.00
21877;BME280;11103;43.788;23.710;2022-12-07T10:41:58;148263.13;;;7.49;100.00
21877;BME280;11103;43.788;23.710;2022-12-07T10:44:32;148252.91;;;7.45;100.00
21877;BME280;11103;43.788;23.710;2022-12-07T10:49:48;148254.19;;;7.46;100.00
21877;BME280;11103;43.788;23.710;2022-12-07T10:52:40;148240.13;;;7.40;100.00
21877;BME280;11103;43.788;23.710;2022-12-07T11:07:02;148385.69;;;7.98;100.00
21877;BME280;11103;43.788;23.710;2022-12-07T11:09:43;148381.88;;;7.96;100.00
21877;BME280;11103;43.788;23.710;2022-12-07T11:12:49;148386.97;;;7.98;100.00
21877;BME280;11103;43.788;23.710;2022-12-07T11:18:02;148283.53;;;7.57;100.00
21877;BME280;11103;43.788;23.710;2022-12-07T11:33:57;148320.53;;;7.72;100.00
21877;BME280;11103;43.788;23.710;2022-12-07T11:39:00;148333.34;;;7.77;100.00
21877;BME280;11103;43.788;23.710;2022-12-07T11:41:38;148371.63;;;7.92;100.00
21877;BME280;11103;43.788;23.710;2022-12-07T11:44:27;148349.91;;;7.84;100.00
21877;BME280;11103;43.788;23.710;2022-12-07T11:47:02;148362.69;;;7.89;100.00
21877;BME280;11103;43.788;23.710;2022-12-07T11:52:00;148409.91;;;8.07;100.00
21877;BME280;11103;43.788;23.710;2022-12-07T11:54:32;148406.09;;;8.06;100.00
21877;BME280;11103;43.788;23.710;2022-12-07T11:57:04;148393.34;;;8.01;100.00
21877;BME280;11103;43.788;23.710;2022-12-07T11:59:39;148309.06;;;7.67;100.00
21877;BME280;11103;43.788;23.710;2022-12-07T12:02:36;148340.97;;;7.80;100.00
21877;BME280;11103;43.788;23.710;2022-12-07T12:05:17;148277.16;;;7.55;100.00
21877;BME280;11103;43.788;23.710;2022-12-07T12:07:44;148311.63;;;7.68;100.00
21877;BME280;11103;43.788;23.710;2022-12-07T12:10:16;148310.34;;;7.68;100.00
21877;BME280;11103;43.788;23.710;2022-12-07T12:20:31;148270.78;;;7.52;100.00
21877;BME280;11103;43.788;23.710;2022-12-07T12:23:19;148302.69;;;7.65;100.00
21877;BME280;11103;43.788;23.710;2022-12-07T12:28:58;148277.16;;;7.55;100.00
21877;BME280;11103;43.788;23.710;2022-12-07T12:33:57;148286.06;;;7.58;100.00
21877;BME280;11103;43.788;23.710;2022-12-07T12:36:30;148310.34;;;7.68;100.00
21877;BME280;11103;43.788;23.710;2022-12-07T12:47:01;148280.97;;;7.56;100.00
21877;BME280;11103;43.788;23.710;2022-12-07T12:49:32;148293.72;;;7.61;100.00
21877;BME280;11103;43.788;23.710;2022-12-07T12:51:58;148283.53;;;7.57;100.00
21877;BME280;11103;43.788;23.710;2022-12-07T12:54:26;148284.84;;;7.58;100.00
21877;BME280;11103;43.788;23.710;2022-12-07T12:59:59;148229.97;;;7.36;100.00
21877;BME280;11103;43.788;23.710;2022-12-07T13:02:54;148256.75;;;7.47;100.00
21877;BME280;11103;43.788;23.710;2022-12-07T13:05:20;148266.94;;;7.51;100.00
21877;BME280;11103;43.788;23.710;2022-12-07T13:15:50;148277.16;;;7.55;100.00
21877;BME280;11103;43.788;23.710;2022-12-07T13:29:18;148279.69;;;7.56;100.00
21877;BME280;11103;43.788;23.710;2022-12-07T13:31:51;148277.16;;;7.55;100.00
21877;BME280;11103;43.788;23.710;2022-12-07T13:34:38;148273.31;;;7.53;100.00
21877;BME280;11103;43.788;23.710;2022-12-07T13:37:25;148287.34;;;7.59;100.00
21877;BME280;11103;43.788;23.710;2022-12-07T13:39:59;148284.84;;;7.58;100.00
21877;BME280;11103;43.788;23.710;2022-12-07T13:42:28;148291.22;;;7.60;100.00
21877;BME280;11103;43.788;23.710;2022-12-07T13:44:56;148282.25;;;7.57;100.00
21877;BME280;11103;43.788;23.710;2022-12-07T13:48:15;148229.97;;;7.36;100.00
21877;BME280;11103;43.788;23.710;2022-12-07T13:52:49;148264.41;;;7.50;100.00
21877;BME280;11103;43.788;23.710;2022-12-07T13:55:16;148269.50;;;7.52;100.00
21877;BME280;11103;43.788;23.710;2022-12-07T13:57:44;148260.56;;;7.48;100.00
21877;BME280;11103;43.788;23.710;2022-12-07T14:00:18;148274.59;;;7.54;100.00
21877;BME280;11103;43.788;23.710;2022-12-07T14:03:22;148244.00;;;7.42;100.00
21877;BME280;11103;43.788;23.710;2022-12-07T14:06:07;148272.03;;;7.53;100.00
21877;BME280;11103;43.788;23.710;2022-12-07T14:08:32;148284.84;;;7.58;100.00
21877;BME280;11103;43.788;23.710;2022-12-07T14:10:58;148282.25;;;7.57;100.00
21877;BME280;11103;43.788;23.710;2022-12-07T14:13:34;148315.44;;;7.70;100.00
21877;BME280;11103;43.788;23.710;2022-12-07T14:16:01;148321.81;;;7.72;100.00
21877;BME280;11103;43.788;23.710;2022-12-07T14:18:27;148329.50;;;7.75;100.00
21877;BME280;11103;43.788;23.710;2022-12-07T14:23:40;148316.72;;;7.70;100.00
21877;BME280;11103;43.788;23.710;2022-12-07T14:26:14;148302.69;;;7.65;100.00
21877;BME280;11103;43.788;23.710;2022-12-07T14:28:41;148338.44;;;7.79;100.00
21877;BME280;11103;43.788;23.710;2022-12-07T14:31:18;148337.16;;;7.78;100.00
21877;BME280;11103;43.788;23.710;2022-12-07T14:33:45;148348.63;;;7.83;100.00
21877;BME280;11103;43.788;23.710;2022-12-07T14:36:11;148343.53;;;7.81;100.00
21877;BME280;11103;43.788;23.710;2022-12-07T14:38:38;148334.59;;;7.77;100.00
21877;BME280;11103;43.788;23.710;2022-12-07T14:41:04;148344.81;;;7.82;100.00
21877;BME280;11103;43.788;23.710;2022-12-07T14:43:49;148334.59;;;7.77;100.00
21877;BME280;11103;43.788;23.710;2022-12-07T14:46:14;148323.09;;;7.73;100.00
21877;BME280;11103;43.788;23.710;2022-12-07T14:48:40;148311.63;;;7.68;100.00
21877;BME280;11103;43.788;23.710;2022-12-07T14:51:08;148275.88;;;7.54;100.00
21877;BME280;11103;43.788;23.710;2022-12-07T14:53:39;148275.88;;;7.54;100.00
21877;BME280;11103;43.788;23.710;2022-12-07T14:56:05;148247.81;;;7.43;100.00
21877;BME280;11103;43.788;23.710;2022-12-07T14:58:31;148238.84;;;7.40;100.00
21877;BME280;11103;43.788;23.710;2022-12-07T15:00:57;148249.09;;;7.44;100.00